Portada
METAR-TAF:

METAR-TAF

Aeroports :

Marsa Alam, Egipte

latitud: 25-33-25N, longitud: 34-35-01E, altitud: 77 m

Observació

L'informe es va fer fa 2 hores i 28 minuts, a les 20:00 UTC
Vent 7 kt del Oest/Nord-Oest
Temperatura 23°C
Humitat 57%
Pressió 1014 hPa
Visibilitat 10 km o més
sense núvols per sota de 1500 mi sense presència de cumulonimbus.

METAR: HEMA 242000Z 30007KT CAVOK 23/14 Q1014 NOSIG

Hora: 00:28 (22:28 UTC)

Pronòstic

L'informe es va fer fa 5 hores i 28 minuts, a les 17:00 UTC
Pronòstic vàlid del 24 a les 18 UTC al 25 a les 24 UTC
Vent 6 kt del Nord/Nord-Oest amb ràfegues de 18 kt
Visibilitat 10 km o més
sense núvols per sota de 1500 mi sense presència de cumulonimbus.

TAF: HEMA 241700Z 2418/2524 34006G18KT CAVOK

Observacions i pronòstics meteorològics de més de 4000 aeroports (METAR i TAF).

Les estacions disponibles són els punts grocs i vermells al mapa.

Posi el ratolí al punt desitjat per veure el nom de l'estació.

Feu clic per veure les observacions i els pronòstics meteorològics.

Per canviar el mapa: feu clic els botons verds amb una creu de color negre per apropar; al botó verd amb un guió per allunyar la imatge; o en les fletxes verdes per a mapes adjacents.


METAR-TAF: